sensor_id;sensor_type;location;lat;lon;timestamp;temperature;humidity
11446;DHT22;5779;64.178;15.432;2023-11-21T00:02:05;-5.60;99.90
11446;DHT22;5779;64.178;15.432;2023-11-21T00:04:52;-5.90;99.90
11446;DHT22;5779;64.178;15.432;2023-11-21T00:07:39;-5.90;99.90
11446;DHT22;5779;64.178;15.432;2023-11-21T00:10:26;-5.70;99.90
11446;DHT22;5779;64.178;15.432;2023-11-21T00:13:15;-5.60;99.90
11446;DHT22;5779;64.178;15.432;2023-11-21T00:16:02;-5.50;99.90
11446;DHT22;5779;64.178;15.432;2023-11-21T00:18:49;-5.40;99.90
11446;DHT22;5779;64.178;15.432;2023-11-21T00:21:36;-5.50;99.90
11446;DHT22;5779;64.178;15.432;2023-11-21T00:24:23;-6.10;99.90
11446;DHT22;5779;64.178;15.432;2023-11-21T00:27:11;-6.30;99.90
11446;DHT22;5779;64.178;15.432;2023-11-21T00:29:59;-6.70;99.90
11446;DHT22;5779;64.178;15.432;2023-11-21T00:32:46;-6.80;99.90
11446;DHT22;5779;64.178;15.432;2023-11-21T00:35:33;-6.70;99.90
11446;DHT22;5779;64.178;15.432;2023-11-21T00:38:20;-6.60;99.90
11446;DHT22;5779;64.178;15.432;2023-11-21T00:41:06;-6.70;99.90
11446;DHT22;5779;64.178;15.432;2023-11-21T00:43:53;-6.90;99.90
11446;DHT22;5779;64.178;15.432;2023-11-21T00:46:42;-7.00;99.90
11446;DHT22;5779;64.178;15.432;2023-11-21T00:49:29;-6.90;99.90
11446;DHT22;5779;64.178;15.432;2023-11-21T00:52:16;-7.00;99.90
11446;DHT22;5779;64.178;15.432;2023-11-21T00:55:03;-7.10;99.90
11446;DHT22;5779;64.178;15.432;2023-11-21T00:57:50;-7.10;99.90
11446;DHT22;5779;64.178;15.432;2023-11-21T01:00:37;-7.10;99.90
11446;DHT22;5779;64.178;15.432;2023-11-21T01:03:26;-6.90;99.90
11446;DHT22;5779;64.178;15.432;2023-11-21T01:06:13;-7.10;99.90
11446;DHT22;5779;64.178;15.432;2023-11-21T01:09:00;-7.10;99.90
11446;DHT22;5779;64.178;15.432;2023-11-21T01:11:49;-7.20;99.90
11446;DHT22;5779;64.178;15.432;2023-11-21T01:14:37;-7.10;99.90
11446;DHT22;5779;64.178;15.432;2023-11-21T01:17:24;-7.10;99.90
11446;DHT22;5779;64.178;15.432;2023-11-21T01:20:13;-7.20;99.90
11446;DHT22;5779;64.178;15.432;2023-11-21T01:23:00;-7.20;99.90
11446;DHT22;5779;64.178;15.432;2023-11-21T01:25:47;-7.20;99.90
11446;DHT22;5779;64.178;15.432;2023-11-21T01:28:34;-7.10;99.90
11446;DHT22;5779;64.178;15.432;2023-11-21T01:31:20;-6.90;99.90
11446;DHT22;5779;64.178;15.432;2023-11-21T01:34:07;-7.00;99.90
11446;DHT22;5779;64.178;15.432;2023-11-21T01:36:55;-7.00;99.90
11446;DHT22;5779;64.178;15.432;2023-11-21T01:39:42;-6.90;99.90
11446;DHT22;5779;64.178;15.432;2023-11-21T01:42:29;-6.60;99.90
11446;DHT22;5779;64.178;15.432;2023-11-21T01:45:16;-6.70;99.90
11446;DHT22;5779;64.178;15.432;2023-11-21T01:48:04;-6.80;99.90
11446;DHT22;5779;64.178;15.432;2023-11-21T01:50:52;-6.60;99.90
11446;DHT22;5779;64.178;15.432;2023-11-21T01:53:40;-6.40;99.90
11446;DHT22;5779;64.178;15.432;2023-11-21T01:56:27;-6.10;99.90
11446;DHT22;5779;64.178;15.432;2023-11-21T01:59:19;-6.50;99.90
11446;DHT22;5779;64.178;15.432;2023-11-21T02:02:07;-6.30;99.90
11446;DHT22;5779;64.178;15.432;2023-11-21T02:04:54;-6.10;99.90
11446;DHT22;5779;64.178;15.432;2023-11-21T02:07:41;-5.90;99.90
11446;DHT22;5779;64.178;15.432;2023-11-21T02:10:30;-5.80;99.90
11446;DHT22;5779;64.178;15.432;2023-11-21T02:13:18;-5.70;99.90
11446;DHT22;5779;64.178;15.432;2023-11-21T02:16:06;-5.80;99.90
11446;DHT22;5779;64.178;15.432;2023-11-21T02:18:54;-6.30;99.90
11446;DHT22;5779;64.178;15.432;2023-11-21T02:21:43;-6.60;99.90
11446;DHT22;5779;64.178;15.432;2023-11-21T02:24:31;-6.40;99.90
11446;DHT22;5779;64.178;15.432;2023-11-21T02:27:19;-6.40;99.90
11446;DHT22;5779;64.178;15.432;2023-11-21T02:30:09;-6.30;99.90
11446;DHT22;5779;64.178;15.432;2023-11-21T02:32:58;-6.30;99.90
11446;DHT22;5779;64.178;15.432;2023-11-21T02:35:45;-6.20;99.90
11446;DHT22;5779;64.178;15.432;2023-11-21T02:38:32;-6.10;99.90
11446;DHT22;5779;64.178;15.432;2023-11-21T02:41:21;-6.20;99.90
11446;DHT22;5779;64.178;15.432;2023-11-21T02:44:08;-6.00;99.90
11446;DHT22;5779;64.178;15.432;2023-11-21T02:46:55;-5.80;99.90
11446;DHT22;5779;64.178;15.432;2023-11-21T02:49:43;-5.60;99.90
11446;DHT22;5779;64.178;15.432;2023-11-21T02:52:30;-5.50;99.90
11446;DHT22;5779;64.178;15.432;2023-11-21T02:55:18;-5.50;99.90
11446;DHT22;5779;64.178;15.432;2023-11-21T02:58:07;-5.40;99.90
11446;DHT22;5779;64.178;15.432;2023-11-21T03:00:53;-5.40;99.90
11446;DHT22;5779;64.178;15.432;2023-11-21T03:03:41;-5.30;99.90
11446;DHT22;5779;64.178;15.432;2023-11-21T03:06:28;-5.60;99.90
11446;DHT22;5779;64.178;15.432;2023-11-21T03:09:15;-5.50;99.90
11446;DHT22;5779;64.178;15.432;2023-11-21T03:12:03;-5.70;99.90
11446;DHT22;5779;64.178;15.432;2023-11-21T03:14:52;-5.60;99.90
11446;DHT22;5779;64.178;15.432;2023-11-21T03:17:40;-5.40;99.90
11446;DHT22;5779;64.178;15.432;2023-11-21T03:20:27;-5.40;99.90
11446;DHT22;5779;64.178;15.432;2023-11-21T03:23:14;-5.30;99.90
11446;DHT22;5779;64.178;15.432;2023-11-21T03:26:01;-5.20;99.90
11446;DHT22;5779;64.178;15.432;2023-11-21T03:28:47;-5.20;99.90
11446;DHT22;5779;64.178;15.432;2023-11-21T03:31:36;-5.20;99.90
11446;DHT22;5779;64.178;15.432;2023-11-21T03:34:25;-5.10;99.90
11446;DHT22;5779;64.178;15.432;2023-11-21T03:37:12;-5.20;99.90
11446;DHT22;5779;64.178;15.432;2023-11-21T03:39:59;-5.30;99.90
11446;DHT22;5779;64.178;15.432;2023-11-21T03:42:46;-5.30;99.90
11446;DHT22;5779;64.178;15.432;2023-11-21T03:45:32;-5.20;99.90
11446;DHT22;5779;64.178;15.432;2023-11-21T03:48:21;-5.30;99.90
11446;DHT22;5779;64.178;15.432;2023-11-21T03:51:08;-5.20;99.90
11446;DHT22;5779;64.178;15.432;2023-11-21T03:53:55;-5.10;99.90
11446;DHT22;5779;64.178;15.432;2023-11-21T03:56:42;-5.00;99.90
11446;DHT22;5779;64.178;15.432;2023-11-21T03:59:29;-4.90;99.90
11446;DHT22;5779;64.178;15.432;2023-11-21T04:02:16;-4.90;99.90
11446;DHT22;5779;64.178;15.432;2023-11-21T04:05:05;-4.90;99.90
11446;DHT22;5779;64.178;15.432;2023-11-21T04:07:52;-4.80;99.90
11446;DHT22;5779;64.178;15.432;2023-11-21T04:10:39;-5.10;99.90
11446;DHT22;5779;64.178;15.432;2023-11-21T04:13:27;-5.00;99.90
11446;DHT22;5779;64.178;15.432;2023-11-21T04:16:14;-5.00;99.90
11446;DHT22;5779;64.178;15.432;2023-11-21T04:19:00;-5.00;99.90
11446;DHT22;5779;64.178;15.432;2023-11-21T04:21:49;-4.90;99.90
11446;DHT22;5779;64.178;15.432;2023-11-21T04:24:36;-5.00;99.90
11446;DHT22;5779;64.178;15.432;2023-11-21T04:27:23;-5.00;99.90
11446;DHT22;5779;64.178;15.432;2023-11-21T04:30:11;-5.10;99.90
11446;DHT22;5779;64.178;15.432;2023-11-21T04:32:57;-5.10;99.90
11446;DHT22;5779;64.178;15.432;2023-11-21T04:35:45;-5.20;99.90
11446;DHT22;5779;64.178;15.432;2023-11-21T04:38:33;-5.60;99.90
11446;DHT22;5779;64.178;15.432;2023-11-21T04:41:20;-6.10;99.90
11446;DHT22;5779;64.178;15.432;2023-11-21T04:44:07;-5.70;99.90
11446;DHT22;5779;64.178;15.432;2023-11-21T04:46:54;-5.50;99.90
11446;DHT22;5779;64.178;15.432;2023-11-21T04:49:42;-5.40;99.90
11446;DHT22;5779;64.178;15.432;2023-11-21T04:52:29;-5.80;99.90
11446;DHT22;5779;64.178;15.432;2023-11-21T04:55:19;-5.80;99.90
11446;DHT22;5779;64.178;15.432;2023-11-21T04:58:06;-6.00;99.90
11446;DHT22;5779;64.178;15.432;2023-11-21T05:00:53;-5.90;99.90
11446;DHT22;5779;64.178;15.432;2023-11-21T05:03:41;-5.70;99.90
11446;DHT22;5779;64.178;15.432;2023-11-21T05:06:28;-5.90;99.90
11446;DHT22;5779;64.178;15.432;2023-11-21T05:09:15;-6.00;99.90
11446;DHT22;5779;64.178;15.432;2023-11-21T05:12:05;-5.80;99.90
11446;DHT22;5779;64.178;15.432;2023-11-21T05:14:51;-5.60;99.90
11446;DHT22;5779;64.178;15.432;2023-11-21T05:17:39;-5.40;99.90
11446;DHT22;5779;64.178;15.432;2023-11-21T05:20:28;-5.30;99.90
11446;DHT22;5779;64.178;15.432;2023-11-21T05:23:15;-5.20;99.90
11446;DHT22;5779;64.178;15.432;2023-11-21T05:26:02;-5.10;99.90
11446;DHT22;5779;64.178;15.432;2023-11-21T05:28:52;-5.10;99.90
11446;DHT22;5779;64.178;15.432;2023-11-21T05:31:39;-5.00;99.90
11446;DHT22;5779;64.178;15.432;2023-11-21T05:34:25;-5.20;99.90
11446;DHT22;5779;64.178;15.432;2023-11-21T05:37:12;-5.20;99.90
11446;DHT22;5779;64.178;15.432;2023-11-21T05:39:59;-5.40;99.90
11446;DHT22;5779;64.178;15.432;2023-11-21T05:42:51;-5.50;99.90
11446;DHT22;5779;64.178;15.432;2023-11-21T05:45:39;-5.60;99.90
11446;DHT22;5779;64.178;15.432;2023-11-21T05:48:26;-5.60;99.90
11446;DHT22;5779;64.178;15.432;2023-11-21T05:51:13;-5.50;99.90
11446;DHT22;5779;64.178;15.432;2023-11-21T05:54:00;-5.40;99.90
11446;DHT22;5779;64.178;15.432;2023-11-21T05:56:47;-5.30;99.90
11446;DHT22;5779;64.178;15.432;2023-11-21T05:59:34;-5.10;99.90
11446;DHT22;5779;64.178;15.432;2023-11-21T06:02:22;-5.50;99.90
11446;DHT22;5779;64.178;15.432;2023-11-21T06:05:11;-5.90;99.90
11446;DHT22;5779;64.178;15.432;2023-11-21T06:07:58;-6.10;99.90
11446;DHT22;5779;64.178;15.432;2023-11-21T06:10:46;-6.10;99.90
11446;DHT22;5779;64.178;15.432;2023-11-21T06:13:34;-6.00;99.90
11446;DHT22;5779;64.178;15.432;2023-11-21T06:16:21;-6.00;99.90
11446;DHT22;5779;64.178;15.432;2023-11-21T06:19:09;-5.90;99.90
11446;DHT22;5779;64.178;15.432;2023-11-21T06:21:56;-5.90;99.90
11446;DHT22;5779;64.178;15.432;2023-11-21T06:24:43;-5.80;99.90
11446;DHT22;5779;64.178;15.432;2023-11-21T06:27:31;-5.90;99.90
11446;DHT22;5779;64.178;15.432;2023-11-21T06:30:18;-5.90;99.90
11446;DHT22;5779;64.178;15.432;2023-11-21T06:33:05;-5.80;99.90
11446;DHT22;5779;64.178;15.432;2023-11-21T06:35:54;-5.90;99.90
11446;DHT22;5779;64.178;15.432;2023-11-21T06:38:41;-6.00;99.90
11446;DHT22;5779;64.178;15.432;2023-11-21T06:41:28;-5.80;99.90
11446;DHT22;5779;64.178;15.432;2023-11-21T06:44:15;-5.60;99.90
11446;DHT22;5779;64.178;15.432;2023-11-21T06:47:02;-5.40;99.90
11446;DHT22;5779;64.178;15.432;2023-11-21T06:49:49;-5.40;99.90
11446;DHT22;5779;64.178;15.432;2023-11-21T06:52:37;-5.50;99.90
11446;DHT22;5779;64.178;15.432;2023-11-21T06:55:25;-5.30;99.90
11446;DHT22;5779;64.178;15.432;2023-11-21T06:58:12;-5.40;99.90
11446;DHT22;5779;64.178;15.432;2023-11-21T07:00:59;-5.20;99.90
11446;DHT22;5779;64.178;15.432;2023-11-21T07:03:47;-5.20;99.90
11446;DHT22;5779;64.178;15.432;2023-11-21T07:06:34;-5.10;99.90
11446;DHT22;5779;64.178;15.432;2023-11-21T07:09:23;-5.40;99.90
11446;DHT22;5779;64.178;15.432;2023-11-21T07:12:10;-5.50;99.90
11446;DHT22;5779;64.178;15.432;2023-11-21T07:14:58;-5.80;99.90
11446;DHT22;5779;64.178;15.432;2023-11-21T07:17:45;-6.00;99.90
11446;DHT22;5779;64.178;15.432;2023-11-21T07:20:31;-5.90;99.90
11446;DHT22;5779;64.178;15.432;2023-11-21T07:23:18;-5.80;99.90
11446;DHT22;5779;64.178;15.432;2023-11-21T07:26:09;-6.00;99.90
11446;DHT22;5779;64.178;15.432;2023-11-21T07:28:56;-6.10;99.90
11446;DHT22;5779;64.178;15.432;2023-11-21T07:31:43;-6.00;99.90
11446;DHT22;5779;64.178;15.432;2023-11-21T07:34:30;-5.90;99.90
11446;DHT22;5779;64.178;15.432;2023-11-21T07:37:16;-6.00;99.90
11446;DHT22;5779;64.178;15.432;2023-11-21T07:40:06;-6.10;99.90
11446;DHT22;5779;64.178;15.432;2023-11-21T07:42:55;-6.00;99.90
11446;DHT22;5779;64.178;15.432;2023-11-21T07:45:42;-6.00;99.90
11446;DHT22;5779;64.178;15.432;2023-11-21T07:48:29;-6.10;99.90
11446;DHT22;5779;64.178;15.432;2023-11-21T07:51:16;-6.00;99.90
11446;DHT22;5779;64.178;15.432;2023-11-21T07:54:03;-6.00;99.90
11446;DHT22;5779;64.178;15.432;2023-11-21T07:56:50;-6.00;99.90
11446;DHT22;5779;64.178;15.432;2023-11-21T07:59:39;-5.80;99.90
11446;DHT22;5779;64.178;15.432;2023-11-21T08:02:25;-5.90;99.90
11446;DHT22;5779;64.178;15.432;2023-11-21T08:05:12;-5.70;99.90
11446;DHT22;5779;64.178;15.432;2023-11-21T08:08:00;-5.70;99.90
11446;DHT22;5779;64.178;15.432;2023-11-21T08:10:47;-6.10;99.90
11446;DHT22;5779;64.178;15.432;2023-11-21T08:13:41;-5.90;99.90
11446;DHT22;5779;64.178;15.432;2023-11-21T08:16:30;-5.60;99.90
11446;DHT22;5779;64.178;15.432;2023-11-21T08:19:17;-5.70;99.90
11446;DHT22;5779;64.178;15.432;2023-11-21T08:22:04;-5.90;99.90
11446;DHT22;5779;64.178;15.432;2023-11-21T08:24:53;-5.80;99.90
11446;DHT22;5779;64.178;15.432;2023-11-21T08:27:41;-5.60;99.90
11446;DHT22;5779;64.178;15.432;2023-11-21T08:30:28;-5.60;99.90
11446;DHT22;5779;64.178;15.432;2023-11-21T08:33:17;-6.00;99.90
11446;DHT22;5779;64.178;15.432;2023-11-21T08:36:07;-6.20;99.90
11446;DHT22;5779;64.178;15.432;2023-11-21T08:38:55;-5.90;99.90
11446;DHT22;5779;64.178;15.432;2023-11-21T08:41:42;-6.00;99.90
11446;DHT22;5779;64.178;15.432;2023-11-21T08:44:29;-6.10;99.90
11446;DHT22;5779;64.178;15.432;2023-11-21T08:47:16;-6.40;99.90
11446;DHT22;5779;64.178;15.432;2023-11-21T08:50:06;-6.40;99.90
11446;DHT22;5779;64.178;15.432;2023-11-21T08:52:54;-6.50;99.90
11446;DHT22;5779;64.178;15.432;2023-11-21T08:55:40;-6.50;99.90
11446;DHT22;5779;64.178;15.432;2023-11-21T08:58:29;-6.50;99.90
11446;DHT22;5779;64.178;15.432;2023-11-21T09:01:17;-6.40;99.90
11446;DHT22;5779;64.178;15.432;2023-11-21T09:04:04;-6.30;99.90
11446;DHT22;5779;64.178;15.432;2023-11-21T09:06:52;-6.50;99.90
11446;DHT22;5779;64.178;15.432;2023-11-21T09:09:39;-6.40;99.90
11446;DHT22;5779;64.178;15.432;2023-11-21T09:12:27;-6.50;99.90
11446;DHT22;5779;64.178;15.432;2023-11-21T09:15:13;-6.20;99.90
11446;DHT22;5779;64.178;15.432;2023-11-21T09:18:00;-6.20;99.90
11446;DHT22;5779;64.178;15.432;2023-11-21T09:20:48;-6.20;99.90
11446;DHT22;5779;64.178;15.432;2023-11-21T09:23:36;-6.30;99.90
11446;DHT22;5779;64.178;15.432;2023-11-21T09:26:23;-6.20;99.90
11446;DHT22;5779;64.178;15.432;2023-11-21T09:29:10;-6.30;99.90
11446;DHT22;5779;64.178;15.432;2023-11-21T09:31:57;-6.40;99.90
11446;DHT22;5779;64.178;15.432;2023-11-21T09:34:44;-6.50;99.90
11446;DHT22;5779;64.178;15.432;2023-11-21T09:37:32;-6.60;99.90
11446;DHT22;5779;64.178;15.432;2023-11-21T09:40:22;-6.50;99.90
11446;DHT22;5779;64.178;15.432;2023-11-21T09:43:16;-6.30;99.90
11446;DHT22;5779;64.178;15.432;2023-11-21T09:46:06;-5.90;99.90
11446;DHT22;5779;64.178;15.432;2023-11-21T09:48:56;-5.60;99.90
11446;DHT22;5779;64.178;15.432;2023-11-21T09:51:50;-5.50;99.90
11446;DHT22;5779;64.178;15.432;2023-11-21T09:54:40;-5.30;99.90
11446;DHT22;5779;64.178;15.432;2023-11-21T09:57:29;-5.10;99.90
11446;DHT22;5779;64.178;15.432;2023-11-21T10:00:17;-5.10;99.90
11446;DHT22;5779;64.178;15.432;2023-11-21T10:03:09;-5.00;99.90
11446;DHT22;5779;64.178;15.432;2023-11-21T10:05:56;-5.00;99.90
11446;DHT22;5779;64.178;15.432;2023-11-21T10:08:46;-4.90;99.90
11446;DHT22;5779;64.178;15.432;2023-11-21T10:11:36;-4.80;99.90
11446;DHT22;5779;64.178;15.432;2023-11-21T10:14:28;-4.80;99.90
11446;DHT22;5779;64.178;15.432;2023-11-21T10:17:18;-4.80;99.90
11446;DHT22;5779;64.178;15.432;2023-11-21T10:20:06;-5.00;99.90
11446;DHT22;5779;64.178;15.432;2023-11-21T10:22:56;-5.40;99.90
11446;DHT22;5779;64.178;15.432;2023-11-21T10:25:43;-5.40;99.90
11446;DHT22;5779;64.178;15.432;2023-11-21T10:28:30;-5.50;99.90
11446;DHT22;5779;64.178;15.432;2023-11-21T10:31:19;-5.40;99.90
11446;DHT22;5779;64.178;15.432;2023-11-21T10:34:16;-5.70;99.90
11446;DHT22;5779;64.178;15.432;2023-11-21T10:37:11;-5.80;99.90
11446;DHT22;5779;64.178;15.432;2023-11-21T10:39:59;-5.60;99.90
11446;DHT22;5779;64.178;15.432;2023-11-21T10:42:45;-5.50;99.90
11446;DHT22;5779;64.178;15.432;2023-11-21T10:45:32;-5.80;99.90
11446;DHT22;5779;64.178;15.432;2023-11-21T10:48:21;-6.00;99.90
11446;DHT22;5779;64.178;15.432;2023-11-21T10:51:09;-6.10;99.90
11446;DHT22;5779;64.178;15.432;2023-11-21T10:53:56;-6.10;99.90
11446;DHT22;5779;64.178;15.432;2023-11-21T10:56:46;-6.10;99.90
11446;DHT22;5779;64.178;15.432;2023-11-21T10:59:33;-6.10;99.90
11446;DHT22;5779;64.178;15.432;2023-11-21T11:02:24;-5.90;99.90
11446;DHT22;5779;64.178;15.432;2023-11-21T11:05:15;-6.00;99.90
11446;DHT22;5779;64.178;15.432;2023-11-21T11:08:06;-6.10;99.90
11446;DHT22;5779;64.178;15.432;2023-11-21T11:10:55;-6.00;99.90
11446;DHT22;5779;64.178;15.432;2023-11-21T11:13:44;-6.00;99.90
11446;DHT22;5779;64.178;15.432;2023-11-21T11:16:32;-6.10;99.90
11446;DHT22;5779;64.178;15.432;2023-11-21T11:19:20;-6.10;99.90
11446;DHT22;5779;64.178;15.432;2023-11-21T11:22:18;-5.90;99.90
11446;DHT22;5779;64.178;15.432;2023-11-21T11:25:27;-5.80;99.90
11446;DHT22;5779;64.178;15.432;2023-11-21T11:28:20;-5.80;99.90
11446;DHT22;5779;64.178;15.432;2023-11-21T11:31:16;-5.90;99.90
11446;DHT22;5779;64.178;15.432;2023-11-21T11:34:13;-5.90;99.90
11446;DHT22;5779;64.178;15.432;2023-11-21T11:37:03;-5.90;99.90
11446;DHT22;5779;64.178;15.432;2023-11-21T11:39:52;-5.60;99.90
11446;DHT22;5779;64.178;15.432;2023-11-21T11:42:40;-5.20;99.90
11446;DHT22;5779;64.178;15.432;2023-11-21T11:45:41;-5.40;99.90
11446;DHT22;5779;64.178;15.432;2023-11-21T11:48:28;-5.20;99.90
11446;DHT22;5779;64.178;15.432;2023-11-21T11:51:15;-4.90;99.90
11446;DHT22;5779;64.178;15.432;2023-11-21T11:54:06;-4.60;99.90
11446;DHT22;5779;64.178;15.432;2023-11-21T11:56:55;-4.50;99.90
11446;DHT22;5779;64.178;15.432;2023-11-21T12:00:12;-4.40;99.90
11446;DHT22;5779;64.178;15.432;2023-11-21T12:03:03;-4.40;99.90
11446;DHT22;5779;64.178;15.432;2023-11-21T12:05:51;-4.20;99.90
11446;DHT22;5779;64.178;15.432;2023-11-21T12:08:43;-4.20;99.90
11446;DHT22;5779;64.178;15.432;2023-11-21T12:11:32;-4.20;99.90
11446;DHT22;5779;64.178;15.432;2023-11-21T12:14:22;-4.20;99.90
11446;DHT22;5779;64.178;15.432;2023-11-21T12:17:09;-4.20;99.90
11446;DHT22;5779;64.178;15.432;2023-11-21T12:20:02;-4.10;99.90
11446;DHT22;5779;64.178;15.432;2023-11-21T12:22:52;-4.00;99.90
11446;DHT22;5779;64.178;15.432;2023-11-21T12:25:39;-4.00;99.90
11446;DHT22;5779;64.178;15.432;2023-11-21T12:28:27;-4.00;99.90
11446;DHT22;5779;64.178;15.432;2023-11-21T12:31:15;-4.30;99.90
11446;DHT22;5779;64.178;15.432;2023-11-21T12:34:04;-4.30;99.90
11446;DHT22;5779;64.178;15.432;2023-11-21T12:36:52;-4.10;99.90
11446;DHT22;5779;64.178;15.432;2023-11-21T12:39:40;-4.10;99.90
11446;DHT22;5779;64.178;15.432;2023-11-21T12:42:27;-4.40;99.90
11446;DHT22;5779;64.178;15.432;2023-11-21T12:45:20;-4.50;99.90
11446;DHT22;5779;64.178;15.432;2023-11-21T12:48:09;-4.50;99.90
11446;DHT22;5779;64.178;15.432;2023-11-21T12:50:56;-4.30;99.90
11446;DHT22;5779;64.178;15.432;2023-11-21T12:53:45;-4.20;99.90
11446;DHT22;5779;64.178;15.432;2023-11-21T12:56:33;-4.20;99.90
11446;DHT22;5779;64.178;15.432;2023-11-21T12:59:21;-4.10;99.90
11446;DHT22;5779;64.178;15.432;2023-11-21T13:02:08;-4.10;99.90
11446;DHT22;5779;64.178;15.432;2023-11-21T13:04:57;-4.20;99.90
11446;DHT22;5779;64.178;15.432;2023-11-21T13:07:44;-4.30;99.90
11446;DHT22;5779;64.178;15.432;2023-11-21T13:10:32;-4.30;99.90
11446;DHT22;5779;64.178;15.432;2023-11-21T13:13:22;-4.20;99.90
11446;DHT22;5779;64.178;15.432;2023-11-21T13:16:09;-4.20;99.90
11446;DHT22;5779;64.178;15.432;2023-11-21T13:18:56;-4.40;99.90
11446;DHT22;5779;64.178;15.432;2023-11-21T13:21:45;-4.30;99.90
11446;DHT22;5779;64.178;15.432;2023-11-21T13:24:31;-4.10;99.90
11446;DHT22;5779;64.178;15.432;2023-11-21T13:27:18;-4.10;99.90
11446;DHT22;5779;64.178;15.432;2023-11-21T13:30:07;-4.30;99.90
11446;DHT22;5779;64.178;15.432;2023-11-21T13:32:54;-4.30;99.90
11446;DHT22;5779;64.178;15.432;2023-11-21T13:35:47;-4.40;99.90
11446;DHT22;5779;64.178;15.432;2023-11-21T13:38:37;-4.90;99.90
11446;DHT22;5779;64.178;15.432;2023-11-21T13:41:27;-5.30;99.90
11446;DHT22;5779;64.178;15.432;2023-11-21T13:44:15;-5.20;99.90
11446;DHT22;5779;64.178;15.432;2023-11-21T13:47:11;-5.10;99.90
11446;DHT22;5779;64.178;15.432;2023-11-21T13:49:58;-5.00;99.90
11446;DHT22;5779;64.178;15.432;2023-11-21T13:52:45;-5.10;99.90
11446;DHT22;5779;64.178;15.432;2023-11-21T13:55:34;-5.10;99.90
11446;DHT22;5779;64.178;15.432;2023-11-21T13:58:21;-4.90;99.90
11446;DHT22;5779;64.178;15.432;2023-11-21T14:01:14;-5.00;99.90
11446;DHT22;5779;64.178;15.432;2023-11-21T14:04:27;-5.00;99.90
11446;DHT22;5779;64.178;15.432;2023-11-21T14:07:39;-5.10;99.90
11446;DHT22;5779;64.178;15.432;2023-11-21T14:10:34;-5.20;99.90
11446;DHT22;5779;64.178;15.432;2023-11-21T14:13:27;-5.40;99.90
11446;DHT22;5779;64.178;15.432;2023-11-21T14:16:15;-5.30;99.90
11446;DHT22;5779;64.178;15.432;2023-11-21T14:19:01;-5.40;99.90
11446;DHT22;5779;64.178;15.432;2023-11-21T14:21:59;-5.40;99.90
11446;DHT22;5779;64.178;15.432;2023-11-21T14:24:46;-5.40;99.90
11446;DHT22;5779;64.178;15.432;2023-11-21T14:27:36;-5.30;99.90
11446;DHT22;5779;64.178;15.432;2023-11-21T14:30:23;-5.40;99.90
11446;DHT22;5779;64.178;15.432;2023-11-21T14:33:12;-5.40;99.90
11446;DHT22;5779;64.178;15.432;2023-11-21T14:36:01;-5.30;99.90
11446;DHT22;5779;64.178;15.432;2023-11-21T14:38:48;-5.30;99.90
11446;DHT22;5779;64.178;15.432;2023-11-21T14:41:35;-5.30;99.90
11446;DHT22;5779;64.178;15.432;2023-11-21T14:44:25;-5.20;99.90
11446;DHT22;5779;64.178;15.432;2023-11-21T14:47:18;-5.00;99.90
11446;DHT22;5779;64.178;15.432;2023-11-21T14:50:10;-4.90;99.90
11446;DHT22;5779;64.178;15.432;2023-11-21T14:53:26;-4.80;99.90
11446;DHT22;5779;64.178;15.432;2023-11-21T14:56:27;-4.70;99.90
11446;DHT22;5779;64.178;15.432;2023-11-21T14:59:16;-4.70;99.90
11446;DHT22;5779;64.178;15.432;2023-11-21T15:02:03;-4.70;99.90
11446;DHT22;5779;64.178;15.432;2023-11-21T15:05:01;-4.60;99.90
11446;DHT22;5779;64.178;15.432;2023-11-21T15:07:48;-4.60;99.90
11446;DHT22;5779;64.178;15.432;2023-11-21T15:10:35;-4.80;99.90
11446;DHT22;5779;64.178;15.432;2023-11-21T15:13:31;-4.80;99.90
11446;DHT22;5779;64.178;15.432;2023-11-21T15:16:18;-4.90;99.90
11446;DHT22;5779;64.178;15.432;2023-11-21T15:19:07;-4.70;99.90
11446;DHT22;5779;64.178;15.432;2023-11-21T15:21:54;-4.80;99.90
11446;DHT22;5779;64.178;15.432;2023-11-21T15:24:41;-4.70;99.90
11446;DHT22;5779;64.178;15.432;2023-11-21T15:27:31;-4.90;99.90
11446;DHT22;5779;64.178;15.432;2023-11-21T15:30:18;-5.10;99.90
11446;DHT22;5779;64.178;15.432;2023-11-21T15:33:09;-5.10;99.90
11446;DHT22;5779;64.178;15.432;2023-11-21T15:35:58;-5.00;99.90
11446;DHT22;5779;64.178;15.432;2023-11-21T15:38:45;-4.90;99.90
11446;DHT22;5779;64.178;15.432;2023-11-21T15:41:32;-4.90;99.90
11446;DHT22;5779;64.178;15.432;2023-11-21T15:44:19;-5.10;99.90
11446;DHT22;5779;64.178;15.432;2023-11-21T15:47:06;-5.10;99.90
11446;DHT22;5779;64.178;15.432;2023-11-21T15:49:54;-5.20;99.90
11446;DHT22;5779;64.178;15.432;2023-11-21T15:52:43;-5.20;99.90
11446;DHT22;5779;64.178;15.432;2023-11-21T15:55:31;-5.10;99.90
11446;DHT22;5779;64.178;15.432;2023-11-21T15:58:19;-5.10;99.90
11446;DHT22;5779;64.178;15.432;2023-11-21T16:01:07;-5.00;99.90
11446;DHT22;5779;64.178;15.432;2023-11-21T16:03:54;-4.80;99.90
11446;DHT22;5779;64.178;15.432;2023-11-21T16:06:42;-4.90;99.90
11446;DHT22;5779;64.178;15.432;2023-11-21T16:09:30;-4.80;99.90
11446;DHT22;5779;64.178;15.432;2023-11-21T16:12:17;-4.80;99.90
11446;DHT22;5779;64.178;15.432;2023-11-21T16:15:06;-4.90;99.90
11446;DHT22;5779;64.178;15.432;2023-11-21T16:17:55;-4.90;99.90
11446;DHT22;5779;64.178;15.432;2023-11-21T16:20:43;-4.90;99.90
11446;DHT22;5779;64.178;15.432;2023-11-21T16:23:30;-5.00;99.90
11446;DHT22;5779;64.178;15.432;2023-11-21T16:26:19;-4.90;99.90
11446;DHT22;5779;64.178;15.432;2023-11-21T16:29:06;-4.90;99.90
11446;DHT22;5779;64.178;15.432;2023-11-21T16:31:53;-4.90;99.90
11446;DHT22;5779;64.178;15.432;2023-11-21T16:34:41;-4.90;99.90
11446;DHT22;5779;64.178;15.432;2023-11-21T16:37:28;-4.90;99.90
11446;DHT22;5779;64.178;15.432;2023-11-21T16:40:15;-4.80;99.90
11446;DHT22;5779;64.178;15.432;2023-11-21T16:43:05;-4.80;99.90
11446;DHT22;5779;64.178;15.432;2023-11-21T16:45:52;-4.70;99.90
11446;DHT22;5779;64.178;15.432;2023-11-21T16:48:39;-4.80;99.90
11446;DHT22;5779;64.178;15.432;2023-11-21T16:51:26;-4.80;99.90
11446;DHT22;5779;64.178;15.432;2023-11-21T16:54:13;-4.70;99.90
11446;DHT22;5779;64.178;15.432;2023-11-21T16:57:01;-4.60;99.90
11446;DHT22;5779;64.178;15.432;2023-11-21T16:59:49;-4.50;99.90
11446;DHT22;5779;64.178;15.432;2023-11-21T17:02:36;-4.40;99.90
11446;DHT22;5779;64.178;15.432;2023-11-21T17:05:23;-4.40;99.90
11446;DHT22;5779;64.178;15.432;2023-11-21T17:08:10;-4.60;99.90
11446;DHT22;5779;64.178;15.432;2023-11-21T17:11:00;-4.50;99.90
11446;DHT22;5779;64.178;15.432;2023-11-21T17:13:48;-4.30;99.90
11446;DHT22;5779;64.178;15.432;2023-11-21T17:16:37;-4.20;99.90
11446;DHT22;5779;64.178;15.432;2023-11-21T17:19:25;-4.30;99.90
11446;DHT22;5779;64.178;15.432;2023-11-21T17:22:16;-4.40;99.90
11446;DHT22;5779;64.178;15.432;2023-11-21T17:25:06;-4.30;99.90
11446;DHT22;5779;64.178;15.432;2023-11-21T17:27:53;-4.30;99.90
11446;DHT22;5779;64.178;15.432;2023-11-21T17:30:41;-4.20;99.90
11446;DHT22;5779;64.178;15.432;2023-11-21T17:33:30;-4.30;99.90
11446;DHT22;5779;64.178;15.432;2023-11-21T17:36:17;-4.40;99.90
11446;DHT22;5779;64.178;15.432;2023-11-21T17:39:04;-4.40;99.90
11446;DHT22;5779;64.178;15.432;2023-11-21T17:41:55;-4.40;99.90
11446;DHT22;5779;64.178;15.432;2023-11-21T17:44:42;-4.40;99.90